Time;durP1;ratioP1;P1;durP2;ratioP2;P2;SDS_P1;SDS_P2;PMS_P1;PMS_P2;Temp;Humidity;BMP_temperature;BMP_pressure;BME280_temperature;BME280_humidity;BME280_pressure;Samples;Min_cycle;Max_cycle;Signal;HPM_P1;HPM_P2
2023/03/01 00:02:11;;;;;;;3.22;3.00;;;;;;;;;;5033579;28;20112;-88
2023/03/01 00:04:38;;;;;;;3.97;3.45;;;;;;;;;;5033811;28;20509;-88
2023/03/01 00:07:04;;;;;;;5.43;5.22;;;;;;;;;;5033951;28;20049;-88
2023/03/01 00:09:31;;;;;;;3.83;3.63;;;;;;;;;;5033331;28;20564;-88
2023/03/01 00:11:57;;;;;;;3.55;3.35;;;;;;;;;;5033533;28;20100;-88
2023/03/01 00:14:24;;;;;;;3.55;3.35;;;;;;;;;;5033876;28;20494;-88
2023/03/01 00:16:52;;;;;;;2.92;2.80;;;;;;;;;;5050832;28;20060;-88
2023/03/01 00:19:20;;;;;;;3.22;3.10;;;;;;;;;;5052977;28;20049;-88
2023/03/01 00:21:46;;;;;;;3.20;3.00;;;;;;;;;;5053433;28;20048;-88
2023/03/01 00:24:13;;;;;;;2.80;2.70;;;;;;;;;;5053422;28;20118;-88
2023/03/01 00:26:39;;;;;;;3.25;3.10;;;;;;;;;;5052942;28;20057;-88
2023/03/01 00:29:06;;;;;;;5.13;4.72;;;;;;;;;;5048578;28;20099;-87
2023/03/01 00:31:33;;;;;;;3.60;3.40;;;;;;;;;;5033244;28;20053;-88
2023/03/01 00:34:01;;;;;;;5.20;3.83;;;;;;;;;;5051973;28;20103;-88
2023/03/01 00:36:29;;;;;;;3.38;3.28;;;;;;;;;;5052436;28;20379;-88
2023/03/01 00:38:55;;;;;;;4.32;3.75;;;;;;;;;;5053043;28;20049;-89
2023/03/01 00:41:23;;;;;;;3.35;3.15;;;;;;;;;;5052674;28;20049;-88
2023/03/01 00:43:50;;;;;;;6.03;5.72;;;;;;;;;;5052782;28;20119;-88
2023/03/01 00:46:18;;;;;;;3.35;3.22;;;;;;;;;;5052930;28;20064;-87
2023/03/01 00:48:44;;;;;;;9.45;3.65;;;;;;;;;;5051791;28;20090;-88
2023/03/01 00:51:13;;;;;;;4.47;4.28;;;;;;;;;;5052515;28;20490;-88
2023/03/01 00:53:40;;;;;;;3.90;2.28;;;;;;;;;;5052973;28;20049;-88
2023/03/01 00:56:07;;;;;;;2.42;2.30;;;;;;;;;;5052402;28;20696;-87
2023/03/01 00:58:34;;;;;;;4.82;4.60;;;;;;;;;;5052501;28;20048;-87
2023/03/01 01:01:01;;;;;;;3.80;3.60;;;;;;;;;;5052371;28;20046;-88
2023/03/01 01:03:28;;;;;;;4.32;4.13;;;;;;;;;;5052527;28;20048;-88
2023/03/01 01:05:54;;;;;;;4.47;4.18;;;;;;;;;;5041793;28;20506;-87
2023/03/01 01:08:22;;;;;;;3.70;3.42;;;;;;;;;;5032481;28;20053;-87
2023/03/01 01:10:49;;;;;;;3.05;2.85;;;;;;;;;;5032205;28;20095;-87
2023/03/01 01:13:15;;;;;;;3.88;3.67;;;;;;;;;;5032721;28;20088;-88
2023/03/01 01:15:42;;;;;;;3.95;3.75;;;;;;;;;;5032798;28;20108;-88
2023/03/01 01:18:09;;;;;;;3.75;3.55;;;;;;;;;;5034933;28;20564;-88
2023/03/01 01:20:36;;;;;;;2.83;2.72;;;;;;;;;;5032725;28;20763;-88
2023/03/01 01:23:03;;;;;;;4.70;4.40;;;;;;;;;;5043814;28;20045;-89
2023/03/01 01:25:31;;;;;;;4.93;4.68;;;;;;;;;;5052905;28;20132;-88
2023/03/01 01:27:58;;;;;;;3.60;3.30;;;;;;;;;;5056673;28;20053;-89
2023/03/01 01:30:24;;;;;;;3.63;3.03;;;;;;;;;;5056325;28;20045;-89
2023/03/01 01:32:50;;;;;;;4.68;4.40;;;;;;;;;;5056496;28;20102;-88
2023/03/01 01:35:17;;;;;;;4.35;4.07;;;;;;;;;;5055979;28;20053;-88
2023/03/01 01:37:44;;;;;;;2.78;2.58;;;;;;;;;;5056452;28;20053;-88
2023/03/01 01:40:12;;;;;;;4.18;3.97;;;;;;;;;;5055328;28;20045;-88
2023/03/01 01:42:40;;;;;;;3.78;3.58;;;;;;;;;;5053732;28;20049;-88
2023/03/01 01:45:25;;;;;;;3.65;3.45;;;;;;;;;;5036708;28;20053;-87
2023/03/01 01:47:52;;;;;;;4.47;4.25;;;;;;;;;;5036409;28;20111;-88
2023/03/01 01:50:19;;;;;;;2.78;2.67;;;;;;;;;;5036286;28;20057;-88
2023/03/01 01:52:47;;;;;;;3.13;2.97;;;;;;;;;;5035856;28;20049;-88
2023/03/01 01:55:15;;;;;;;4.65;3.33;;;;;;;;;;5036227;28;20046;-88
2023/03/01 01:57:46;;;;;;;4.88;4.57;;;;;;;;;;5042990;28;20056;-88
2023/03/01 02:00:14;;;;;;;5.22;4.82;;;;;;;;;;5035852;28;20537;-88
2023/03/01 02:02:41;;;;;;;3.05;2.95;;;;;;;;;;5035956;28;20053;-88
2023/03/01 02:05:12;;;;;;;4.38;4.18;;;;;;;;;;5035974;28;20045;-88
2023/03/01 02:07:39;;;;;;;6.63;3.60;;;;;;;;;;5035622;28;20450;-88
2023/03/01 02:10:05;;;;;;;3.92;3.72;;;;;;;;;;5035950;28;20131;-88
2023/03/01 02:12:33;;;;;;;3.88;3.67;;;;;;;;;;5035948;28;20042;-88
2023/03/01 02:15:01;;;;;;;4.43;4.22;;;;;;;;;;5050671;28;20041;-88
2023/03/01 02:17:27;;;;;;;5.05;3.85;;;;;;;;;;5055489;28;20052;-88
2023/03/01 02:20:06;;;;;;;4.90;4.60;;;;;;;;;;5055435;28;20460;-88
2023/03/01 02:22:34;;;;;;;4.00;3.83;;;;;;;;;;5055566;28;20500;-88
2023/03/01 02:25:08;;;;;;;2.50;2.40;;;;;;;;;;5055768;28;20053;-88
2023/03/01 02:27:39;;;;;;;3.08;2.95;;;;;;;;;;5055566;28;20048;-88
2023/03/01 02:30:08;;;;;;;3.03;2.83;;;;;;;;;;5052917;28;20053;-88
2023/03/01 02:32:34;;;;;;;2.67;2.53;;;;;;;;;;5055181;28;20491;-88
2023/03/01 02:35:00;;;;;;;4.13;3.30;;;;;;;;;;5055010;28;20052;-87
2023/03/01 02:37:27;;;;;;;3.83;3.60;;;;;;;;;;5053990;28;20053;-88
2023/03/01 02:39:57;;;;;;;6.35;5.95;;;;;;;;;;5054979;28;20555;-87
2023/03/01 02:42:26;;;;;;;3.35;3.05;;;;;;;;;;5054788;28;20407;-88
2023/03/01 02:44:53;;;;;;;2.92;2.83;;;;;;;;;;5055189;28;20048;-88
2023/03/01 02:47:21;;;;;;;3.80;3.50;;;;;;;;;;5055130;28;20076;-88
2023/03/01 02:49:47;;;;;;;3.30;3.17;;;;;;;;;;5053475;28;20110;-88
2023/03/01 02:52:29;;;;;;;5.03;4.63;;;;;;;;;;5055120;28;20045;-87
2023/03/01 02:54:59;;;;;;;3.45;3.25;;;;;;;;;;5051011;28;20055;-88
2023/03/01 02:57:27;;;;;;;3.58;3.38;;;;;;;;;;5055100;28;20045;-88
2023/03/01 02:59:55;;;;;;;2.08;1.98;;;;;;;;;;5054970;28;20059;-88
2023/03/01 03:02:35;;;;;;;4.47;4.28;;;;;;;;;;5054797;28;20178;-88
2023/03/01 03:05:03;;;;;;;2.13;2.03;;;;;;;;;;5054911;28;20048;-88
2023/03/01 03:07:29;;;;;;;4.25;4.00;;;;;;;;;;5053897;28;20048;-88
2023/03/01 03:09:56;;;;;;;2.35;2.25;;;;;;;;;;5054842;28;20045;-88
2023/03/01 03:12:22;;;;;;;4.38;4.18;;;;;;;;;;5054721;28;20049;-88
2023/03/01 03:14:49;;;;;;;3.05;2.92;;;;;;;;;;5054481;28;20107;-88
2023/03/01 03:17:15;;;;;;;3.45;3.25;;;;;;;;;;5054786;28;20095;-88
2023/03/01 03:19:45;;;;;;;2.67;2.58;;;;;;;;;;5054811;28;20049;-87
2023/03/01 03:22:11;;;;;;;4.18;3.95;;;;;;;;;;5054234;28;20107;-87
2023/03/01 03:24:38;;;;;;;3.08;2.88;;;;;;;;;;5051771;28;20056;-88
2023/03/01 03:27:05;;;;;;;3.88;3.67;;;;;;;;;;5054414;28;20124;-88
2023/03/01 03:29:31;;;;;;;4.03;3.83;;;;;;;;;;5053393;28;20490;-88
2023/03/01 03:31:58;;;;;;;5.80;5.30;;;;;;;;;;5054259;28;20060;-88
2023/03/01 03:34:24;;;;;;;7.07;6.78;;;;;;;;;;5054461;28;20049;-88
2023/03/01 03:36:56;;;;;;;3.40;3.13;;;;;;;;;;5054125;28;20072;-88
2023/03/01 03:39:23;;;;;;;2.45;2.35;;;;;;;;;;5054060;28;20049;-89
2023/03/01 03:41:49;;;;;;;3.90;3.70;;;;;;;;;;5051191;28;20049;-88
2023/03/01 03:44:16;;;;;;;4.28;3.90;;;;;;;;;;5054195;28;20067;-88
2023/03/01 03:46:42;;;;;;;3.08;2.95;;;;;;;;;;5045657;28;20045;-89
2023/03/01 03:49:09;;;;;;;3.83;3.47;;;;;;;;;;5033618;28;20046;-88
2023/03/01 03:51:35;;;;;;;3.10;2.97;;;;;;;;;;5033995;28;20045;-89
2023/03/01 03:54:03;;;;;;;2.67;2.55;;;;;;;;;;5033873;28;20099;-89
2023/03/01 03:56:30;;;;;;;3.40;3.28;;;;;;;;;;5033759;28;20054;-89
2023/03/01 03:58:56;;;;;;;3.20;3.00;;;;;;;;;;5034030;28;20457;-88
2023/03/01 04:01:23;;;;;;;2.25;2.15;;;;;;;;;;5033666;28;20053;-88
2023/03/01 04:03:54;;;;;;;3.28;3.08;;;;;;;;;;5053292;28;20045;-88
2023/03/01 04:06:20;;;;;;;3.30;3.20;;;;;;;;;;5053277;28;20696;-87
2023/03/01 04:08:50;;;;;;;3.40;3.28;;;;;;;;;;5053455;28;20049;-87
2023/03/01 04:11:27;;;;;;;3.40;3.25;;;;;;;;;;5053229;28;20051;-88
2023/03/01 04:13:55;;;;;;;3.13;3.03;;;;;;;;;;5053278;28;20044;-88
2023/03/01 04:16:22;;;;;;;3.75;3.65;;;;;;;;;;5053597;28;20098;-88
2023/03/01 04:18:49;;;;;;;2.85;2.65;;;;;;;;;;5049288;28;20123;-88
2023/03/01 04:21:15;;;;;;;2.83;2.72;;;;;;;;;;5033375;28;20046;-88
2023/03/01 04:23:42;;;;;;;1.73;1.63;;;;;;;;;;5033292;28;20099;-88
2023/03/01 04:26:08;;;;;;;4.25;4.05;;;;;;;;;;5033231;28;20502;-87
2023/03/01 04:28:37;;;;;;;3.85;3.65;;;;;;;;;;5033365;28;20053;-87
2023/03/01 04:31:12;;;;;;;3.88;3.67;;;;;;;;;;5033291;28;20559;-88
2023/03/01 04:33:39;;;;;;;2.13;2.00;;;;;;;;;;5033213;28;20061;-87
2023/03/01 04:36:08;;;;;;;3.78;3.58;;;;;;;;;;5042240;28;20445;-87
2023/03/01 04:38:36;;;;;;;5.00;4.78;;;;;;;;;;5052852;28;20049;-87
2023/03/01 04:41:03;;;;;;;4.28;4.07;;;;;;;;;;5052900;28;20110;-87
2023/03/01 04:43:30;;;;;;;5.03;3.78;;;;;;;;;;5052677;28;20490;-87
2023/03/01 04:46:03;;;;;;;4.60;4.18;;;;;;;;;;5052978;28;20057;-88
2023/03/01 04:48:30;;;;;;;2.55;2.45;;;;;;;;;;5052595;28;20135;-87
2023/03/01 04:50:56;;;;;;;4.30;4.10;;;;;;;;;;5052944;28;20048;-88
2023/03/01 04:53:22;;;;;;;3.75;3.55;;;;;;;;;;5039577;28;20053;-87
2023/03/01 04:55:49;;;;;;;2.72;2.53;;;;;;;;;;5032890;28;20461;-87
2023/03/01 04:58:15;;;;;;;2.83;2.72;;;;;;;;;;5032971;28;20049;-87
2023/03/01 05:00:42;;;;;;;3.40;3.28;;;;;;;;;;5031727;28;20560;-87
2023/03/01 05:03:10;;;;;;;2.80;2.60;;;;;;;;;;5032743;28;20049;-88
2023/03/01 05:05:38;;;;;;;3.25;3.13;;;;;;;;;;5032925;28;20050;-88
2023/03/01 05:08:05;;;;;;;3.47;3.28;;;;;;;;;;5032604;28;20614;-88
2023/03/01 05:10:34;;;;;;;3.88;3.63;;;;;;;;;;5042592;28;20041;-88
2023/03/01 05:13:01;;;;;;;3.58;3.38;;;;;;;;;;5052350;28;20048;-88
2023/03/01 05:15:28;;;;;;;9.15;4.43;;;;;;;;;;5052641;28;20102;-87
2023/03/01 05:17:58;;;;;;;2.17;2.08;;;;;;;;;;5052356;28;20509;-87
2023/03/01 05:20:26;;;;;;;4.32;3.15;;;;;;;;;;5052583;28;20051;-87
2023/03/01 05:22:55;;;;;;;2.13;2.00;;;;;;;;;;5052629;28;20163;-87
2023/03/01 05:25:22;;;;;;;4.60;3.55;;;;;;;;;;5050395;28;20049;-87
2023/03/01 05:27:48;;;;;;;3.00;2.90;;;;;;;;;;5035081;28;20045;-87
2023/03/01 05:30:15;;;;;;;3.10;2.90;;;;;;;;;;5031735;28;20083;-87
2023/03/01 05:32:44;;;;;;;2.70;2.58;;;;;;;;;;5031968;28;20046;-87
2023/03/01 05:35:13;;;;;;;4.60;4.40;;;;;;;;;;5032045;28;20546;-87
2023/03/01 05:37:42;;;;;;;3.28;3.05;;;;;;;;;;5031929;28;20510;-87
2023/03/01 05:40:15;;;;;;;2.35;2.25;;;;;;;;;;5032120;28;20462;-87
2023/03/01 05:42:42;;;;;;;3.78;3.47;;;;;;;;;;5032387;28;20050;-87
2023/03/01 05:45:10;;;;;;;3.75;3.55;;;;;;;;;;5035463;28;20414;-87
2023/03/01 05:47:36;;;;;;;2.90;2.70;;;;;;;;;;5032197;28;20128;-87
2023/03/01 05:50:03;;;;;;;2.55;2.45;;;;;;;;;;5032502;28;20049;-87
2023/03/01 05:52:29;;;;;;;10.60;4.00;;;;;;;;;;5032319;28;20119;-87
2023/03/01 05:54:57;;;;;;;3.45;3.22;;;;;;;;;;5032085;28;20046;-87
2023/03/01 05:57:23;;;;;;;3.30;3.08;;;;;;;;;;5032048;28;20567;-88
2023/03/01 05:59:50;;;;;;;3.50;3.30;;;;;;;;;;5033847;28;20053;-87
2023/03/01 06:02:16;;;;;;;2.97;2.78;;;;;;;;;;5034111;28;20057;-88
2023/03/01 06:04:43;;;;;;;2.30;2.20;;;;;;;;;;5033537;28;20104;-88
2023/03/01 06:07:09;;;;;;;3.97;3.72;;;;;;;;;;5033710;28;20053;-88
2023/03/01 06:09:37;;;;;;;2.60;2.50;;;;;;;;;;5032224;28;20049;-88
2023/03/01 06:12:05;;;;;;;3.08;2.88;;;;;;;;;;5033424;28;20445;-87
2023/03/01 06:14:32;;;;;;;4.50;4.25;;;;;;;;;;5036013;28;20129;-88
2023/03/01 06:16:59;;;;;;;4.63;4.28;;;;;;;;;;5036837;28;20187;-88
2023/03/01 06:19:25;;;;;;;12.55;3.55;;;;;;;;;;5039562;28;20045;-88
2023/03/01 06:21:52;;;;;;;5.20;5.00;;;;;;;;;;5035769;28;20123;-87
2023/03/01 06:24:18;;;;;;;3.55;3.35;;;;;;;;;;5034745;28;20049;-88
2023/03/01 06:26:45;;;;;;;3.95;3.70;;;;;;;;;;5051120;28;20052;-88
2023/03/01 06:29:13;;;;;;;3.65;3.45;;;;;;;;;;5054746;28;20485;-87
2023/03/01 06:31:40;;;;;;;3.13;2.92;;;;;;;;;;5055041;28;20049;-87
2023/03/01 06:34:06;;;;;;;1.98;1.88;;;;;;;;;;5044244;28;20495;-87
2023/03/01 06:36:32;;;;;;;4.82;4.50;;;;;;;;;;5034254;28;20107;-88
2023/03/01 06:38:59;;;;;;;2.80;2.70;;;;;;;;;;5034845;28;20050;-88
2023/03/01 06:41:25;;;;;;;1.73;1.63;;;;;;;;;;5035266;28;20053;-91
2023/03/01 06:43:54;;;;;;;4.30;4.10;;;;;;;;;;5035113;28;20107;-88
2023/03/01 06:46:22;;;;;;;3.50;2.90;;;;;;;;;;5042412;28;20055;-88
2023/03/01 06:48:48;;;;;;;3.67;3.47;;;;;;;;;;5054371;28;20048;-88
2023/03/01 06:51:15;;;;;;;3.47;3.30;;;;;;;;;;5051044;28;20045;-88
2023/03/01 06:53:41;;;;;;;4.93;4.50;;;;;;;;;;5053564;28;20052;-88
2023/03/01 06:56:08;;;;;;;3.20;3.00;;;;;;;;;;5034301;28;20092;-88
2023/03/01 06:58:34;;;;;;;3.38;3.17;;;;;;;;;;5035230;28;20115;-88
2023/03/01 07:01:01;;;;;;;3.13;2.92;;;;;;;;;;5034436;28;20682;-89
2023/03/01 07:03:29;;;;;;;3.65;3.53;;;;;;;;;;5050895;28;20056;-88
2023/03/01 07:05:55;;;;;;;2.22;2.03;;;;;;;;;;5052987;28;20464;-89
2023/03/01 07:08:22;;;;;;;2.85;2.72;;;;;;;;;;5035479;28;20049;-90
2023/03/01 07:10:48;;;;;;;2.97;2.85;;;;;;;;;;5034593;28;20053;-89
2023/03/01 07:13:15;;;;;;;4.05;3.85;;;;;;;;;;5034701;28;20046;-91
2023/03/01 07:15:41;;;;;;;3.40;3.10;;;;;;;;;;5034365;28;20053;-89
2023/03/01 07:18:08;;;;;;;5.63;5.43;;;;;;;;;;5034732;28;20056;-89
2023/03/01 07:20:36;;;;;;;3.78;3.60;;;;;;;;;;5034475;28;20111;-89
2023/03/01 07:23:02;;;;;;;4.95;4.72;;;;;;;;;;5045731;28;20049;-90
2023/03/01 07:25:29;;;;;;;3.78;3.60;;;;;;;;;;5054175;28;20049;-90
2023/03/01 07:27:55;;;;;;;3.80;3.53;;;;;;;;;;5054365;28;20103;-89
2023/03/01 07:30:22;;;;;;;4.20;4.00;;;;;;;;;;5053811;28;20053;-89
2023/03/01 07:32:48;;;;;;;2.15;2.05;;;;;;;;;;5038281;28;20056;-90
2023/03/01 07:35:15;;;;;;;5.40;1.80;;;;;;;;;;5034363;28;20115;-89
2023/03/01 07:37:43;;;;;;;2.15;1.98;;;;;;;;;;5034630;28;20466;-89
2023/03/01 07:40:10;;;;;;;4.13;3.88;;;;;;;;;;5034362;28;20290;-88
2023/03/01 07:42:37;;;;;;;2.58;2.42;;;;;;;;;;5034823;28;20450;-89
2023/03/01 07:45:03;;;;;;;2.42;2.33;;;;;;;;;;5034414;28;20099;-89
2023/03/01 07:47:30;;;;;;;3.22;3.03;;;;;;;;;;5034458;28;20108;-89
2023/03/01 07:49:57;;;;;;;3.33;3.13;;;;;;;;;;5034474;28;20111;-88
2023/03/01 07:52:23;;;;;;;2.80;2.70;;;;;;;;;;5034280;28;20388;-89
2023/03/01 07:54:51;;;;;;;2.60;2.47;;;;;;;;;;5034113;28;20068;-89
2023/03/01 07:57:18;;;;;;;3.08;2.88;;;;;;;;;;5034173;28;20053;-90
2023/03/01 07:59:44;;;;;;;2.17;2.08;;;;;;;;;;5034027;28;20049;-91
2023/03/01 08:02:11;;;;;;;3.70;3.50;;;;;;;;;;5034331;28;20053;-90
2023/03/01 08:04:37;;;;;;;3.53;3.40;;;;;;;;;;5033845;28;20049;-90
2023/03/01 08:07:05;;;;;;;2.88;2.78;;;;;;;;;;5033735;28;20049;-92
2023/03/01 08:09:32;;;;;;;2.58;2.45;;;;;;;;;;5034500;28;20053;-90
2023/03/01 08:12:00;;;;;;;5.47;5.18;;;;;;;;;;5033896;28;20057;-90
2023/03/01 08:14:26;;;;;;;4.32;4.15;;;;;;;;;;5037824;28;20152;-91
2023/03/01 08:16:54;;;;;;;2.70;2.58;;;;;;;;;;5038733;28;20050;-90
2023/03/01 08:19:21;;;;;;;3.90;3.78;;;;;;;;;;5054237;28;20053;-91
2023/03/01 08:21:47;;;;;;;2.72;2.60;;;;;;;;;;5054177;28;20040;-91
2023/03/01 08:24:14;;;;;;;4.00;3.78;;;;;;;;;;5035598;28;20050;-92
2023/03/01 08:26:40;;;;;;;4.25;4.05;;;;;;;;;;5033825;28;20053;-92
2023/03/01 08:29:08;;;;;;;4.43;4.22;;;;;;;;;;5034049;28;20049;-91
2023/03/01 08:31:36;;;;;;;3.53;3.38;;;;;;;;;;5014301;28;20050;-92
2023/03/01 08:34:03;;;;;;;2.30;2.20;;;;;;;;;;5014221;28;20046;-92
2023/03/01 08:36:31;;;;;;;3.95;3.75;;;;;;;;;;5014084;28;20050;-92
2023/03/01 08:38:58;;;;;;;3.70;3.50;;;;;;;;;;5014074;28;20066;-91
2023/03/01 08:41:24;;;;;;;2.38;2.28;;;;;;;;;;5014196;28;20050;-91
2023/03/01 08:43:52;;;;;;;3.10;3.00;;;;;;;;;;5020332;28;20045;-91
2023/03/01 08:46:20;;;;;;;2.63;2.53;;;;;;;;;;5033659;28;20049;-90
2023/03/01 08:48:47;;;;;;;2.80;2.70;;;;;;;;;;5033662;28;20099;-91
2023/03/01 08:51:14;;;;;;;5.30;3.90;;;;;;;;;;5033851;28;20099;-91
2023/03/01 08:53:41;;;;;;;2.85;2.72;;;;;;;;;;5033372;28;20056;-91
2023/03/01 08:56:08;;;;;;;2.63;2.53;;;;;;;;;;5033130;28;20103;-90
2023/03/01 08:58:34;;;;;;;3.50;3.30;;;;;;;;;;5033453;28;20046;-91
2023/03/01 09:01:01;;;;;;;2.08;1.98;;;;;;;;;;5021557;28;20049;-91
2023/03/01 09:03:29;;;;;;;3.85;3.70;;;;;;;;;;5033387;28;20049;-91
2023/03/01 09:06:00;;;;;;;2.38;2.28;;;;;;;;;;5033337;28;20049;-90
2023/03/01 09:08:27;;;;;;;2.70;2.60;;;;;;;;;;5032913;28;20056;-92
2023/03/01 09:10:53;;;;;;;2.13;2.03;;;;;;;;;;5033139;28;20095;-91
2023/03/01 09:13:20;;;;;;;1.83;1.73;;;;;;;;;;5033067;28;20045;-92
2023/03/01 09:15:46;;;;;;;2.33;2.22;;;;;;;;;;5033149;28;20049;-91
2023/03/01 09:18:13;;;;;;;2.58;2.47;;;;;;;;;;5033232;28;20053;-92
2023/03/01 09:20:41;;;;;;;3.65;3.47;;;;;;;;;;5032878;28;20491;-91
2023/03/01 09:23:08;;;;;;;3.55;3.42;;;;;;;;;;5027383;28;20042;-93
2023/03/01 09:25:35;;;;;;;5.32;5.03;;;;;;;;;;5018188;28;20049;-93
2023/03/01 09:28:01;;;;;;;3.00;2.90;;;;;;;;;;5032810;28;20099;-93
2023/03/01 09:30:28;;;;;;;2.53;2.42;;;;;;;;;;5043450;28;20054;-92
2023/03/01 09:32:54;;;;;;;3.72;3.60;;;;;;;;;;5052980;28;20118;-90
2023/03/01 09:35:22;;;;;;;3.20;3.08;;;;;;;;;;5044346;28;20188;-91
2023/03/01 09:37:50;;;;;;;5.43;5.13;;;;;;;;;;5034772;28;20529;-92
2023/03/01 09:40:18;;;;;;;3.28;3.15;;;;;;;;;;5043885;28;20046;-92
2023/03/01 09:42:50;;;;;;;3.25;3.05;;;;;;;;;;5032739;28;20516;-91
2023/03/01 09:45:22;;;;;;;3.65;3.53;;;;;;;;;;5033100;28;20052;-92
2023/03/01 09:47:49;;;;;;;3.53;3.40;;;;;;;;;;5035244;28;20049;-92
2023/03/01 09:50:17;;;;;;;3.75;3.65;;;;;;;;;;5045481;28;20045;-92
2023/03/01 09:52:45;;;;;;;5.57;5.38;;;;;;;;;;5056756;28;20079;-93
2023/03/01 09:55:15;;;;;;;4.15;4.03;;;;;;;;;;5056238;28;20045;-92
2023/03/01 09:57:46;;;;;;;4.78;4.53;;;;;;;;;;5056304;28;20052;-93
2023/03/01 10:00:24;;;;;;;5.70;5.47;;;;;;;;;;5056653;28;20053;-92
2023/03/01 10:02:53;;;;;;;3.53;3.35;;;;;;;;;;5056725;28;20057;-92
2023/03/01 10:05:26;;;;;;;4.90;4.70;;;;;;;;;;5038779;28;20046;-91
2023/03/01 10:07:57;;;;;;;3.03;2.83;;;;;;;;;;5036257;28;20057;-93
2023/03/01 10:10:28;;;;;;;3.70;3.50;;;;;;;;;;5036430;28;20103;-92
2023/03/01 10:12:54;;;;;;;5.78;5.55;;;;;;;;;;5036195;28;20053;-91
2023/03/01 10:15:25;;;;;;;3.53;3.33;;;;;;;;;;5036224;28;20388;-90
2023/03/01 10:17:54;;;;;;;4.20;4.00;;;;;;;;;;5035837;28;20069;-92
2023/03/01 10:20:21;;;;;;;7.38;7.07;;;;;;;;;;5036342;28;20049;-91
2023/03/01 10:22:50;;;;;;;4.50;4.30;;;;;;;;;;5036216;28;20057;-92
2023/03/01 10:25:21;;;;;;;5.15;4.93;;;;;;;;;;5035920;28;20054;-90
2023/03/01 10:27:52;;;;;;;6.15;5.80;;;;;;;;;;5040571;28;20053;-91
2023/03/01 10:30:21;;;;;;;6.63;6.32;;;;;;;;;;5055863;28;20057;-90
2023/03/01 10:32:48;;;;;;;5.80;5.30;;;;;;;;;;5055603;28;20049;-89
2023/03/01 10:35:19;;;;;;;6.38;6.13;;;;;;;;;;5055410;28;20136;-91
2023/03/01 10:37:45;;;;;;;;;;;;;;;;;;5055654;28;20049;-90
2023/03/01 10:40:12;;;;;;;3.20;3.08;;;;;;;;;;5055531;28;20294;-91
2023/03/01 10:42:39;;;;;;;5.20;4.97;;;;;;;;;;5055549;28;20045;-92
2023/03/01 10:45:26;;;;;;;5.32;5.05;;;;;;;;;;5052599;28;20464;-89
2023/03/01 10:48:03;;;;;;;3.08;2.97;;;;;;;;;;5055043;28;20053;-91
2023/03/01 10:50:30;;;;;;;;;;;;;;;;;;5055314;28;20551;-90
2023/03/01 10:52:57;;;;;;;5.30;5.10;;;;;;;;;;5055285;28;19924;-92
2023/03/01 10:55:26;;;;;;;6.65;6.35;;;;;;;;;;5055021;28;20052;-90
2023/03/01 10:58:06;;;;;;;4.80;4.60;;;;;;;;;;5054053;28;20053;-90
2023/03/01 11:00:46;;;;;;;4.82;4.60;;;;;;;;;;5054800;28;20053;-89
2023/03/01 11:03:13;;;;;;;4.88;4.68;;;;;;;;;;5046346;28;20664;-91
2023/03/01 11:05:51;;;;;;;7.68;7.35;;;;;;;;;;5034685;28;20050;-91
2023/03/01 11:08:29;;;;;;;4.10;3.90;;;;;;;;;;5036175;28;20049;-91
2023/03/01 11:11:04;;;;;;;5.40;5.20;;;;;;;;;;5054971;28;20053;-91
2023/03/01 11:13:31;;;;;;;5.75;5.45;;;;;;;;;;5051500;28;20551;-91
2023/03/01 11:16:02;;;;;;;5.93;5.65;;;;;;;;;;5054723;28;20044;-91
2023/03/01 11:18:30;;;;;;;4.43;4.22;;;;;;;;;;5055137;28;20060;-91
2023/03/01 11:20:58;;;;;;;6.15;5.93;;;;;;;;;;5054811;28;20509;-91
2023/03/01 11:23:24;;;;;;;4.63;4.43;;;;;;;;;;5053518;28;20053;-91
2023/03/01 11:25:55;;;;;;;6.45;6.15;;;;;;;;;;5034882;28;20107;-91
2023/03/01 11:28:22;;;;;;;5.65;5.30;;;;;;;;;;5035312;28;20490;-91
2023/03/01 11:30:53;;;;;;;5.63;5.32;;;;;;;;;;5035195;28;20057;-91
2023/03/01 11:33:25;;;;;;;6.70;4.95;;;;;;;;;;5034490;28;20062;-91
2023/03/01 11:35:56;;;;;;;5.32;5.13;;;;;;;;;;5034439;28;20494;-91
2023/03/01 11:38:24;;;;;;;5.57;4.97;;;;;;;;;;5034160;28;20513;-90
2023/03/01 11:40:53;;;;;;;7.32;6.68;;;;;;;;;;5034433;28;20490;-91
2023/03/01 11:43:24;;;;;;;7.53;7.22;;;;;;;;;;5034772;28;20056;-92
2023/03/01 11:46:00;;;;;;;4.53;4.32;;;;;;;;;;5034605;28;20049;-92
2023/03/01 11:48:34;;;;;;;6.30;5.97;;;;;;;;;;5034204;28;20115;-91
2023/03/01 11:51:05;;;;;;;5.72;4.43;;;;;;;;;;5034040;28;20057;-91
2023/03/01 11:53:37;;;;;;;5.78;5.40;;;;;;;;;;5034464;28;20058;-91
2023/03/01 11:56:06;;;;;;;5.05;4.82;;;;;;;;;;5034032;28;20041;-90
2023/03/01 11:58:44;;;;;;;4.45;4.15;;;;;;;;;;5034405;28;20061;-92
2023/03/01 12:01:16;;;;;;;6.35;6.13;;;;;;;;;;5034268;28;20053;-91
2023/03/01 12:03:57;;;;;;;6.63;6.32;;;;;;;;;;5034401;28;20064;-91
2023/03/01 12:06:36;;;;;;;4.30;4.07;;;;;;;;;;5044542;28;20068;-91
2023/03/01 12:09:18;;;;;;;5.38;5.15;;;;;;;;;;5053729;28;20571;-91
2023/03/01 12:11:52;;;;;;;4.25;4.05;;;;;;;;;;5053919;28;20049;-91
2023/03/01 12:14:29;;;;;;;5.75;5.45;;;;;;;;;;5053931;28;20099;-91
2023/03/01 12:17:05;;;;;;;4.38;4.18;;;;;;;;;;5053781;28;20053;-91
2023/03/01 12:19:39;;;;;;;5.35;5.13;;;;;;;;;;5043837;28;20063;-90
2023/03/01 12:22:14;;;;;;;5.65;5.35;;;;;;;;;;5042072;28;20111;-92
2023/03/01 12:24:58;;;;;;;5.30;5.10;;;;;;;;;;5053617;28;20049;-90
2023/03/01 12:27:41;;;;;;;5.32;5.10;;;;;;;;;;5053675;28;20056;-90
2023/03/01 12:30:17;;;;;;;4.57;4.28;;;;;;;;;;5053096;28;20049;-89
2023/03/01 12:32:48;;;;;;;5.97;5.68;;;;;;;;;;5053281;28;20049;-88
2023/03/01 12:35:26;;;;;;;5.63;5.40;;;;;;;;;;5033159;28;20057;-89
2023/03/01 12:37:56;;;;;;;4.95;4.65;;;;;;;;;;5044253;28;20501;-89
2023/03/01 12:40:34;;;;;;;5.07;4.65;;;;;;;;;;5053275;28;20053;-89
2023/03/01 12:43:09;;;;;;;7.03;6.60;;;;;;;;;;5053087;28;20057;-89
2023/03/01 12:45:49;;;;;;;8.20;7.88;;;;;;;;;;5053096;28;20049;-89
2023/03/01 12:48:31;;;;;;;7.50;7.00;;;;;;;;;;5052759;28;20498;-89
2023/03/01 12:51:02;;;;;;;5.55;5.25;;;;;;;;;;5052794;28;20049;-89
2023/03/01 12:53:30;;;;;;;7.35;6.93;;;;;;;;;;5054037;28;20118;-88
2023/03/01 12:55:59;;;;;;;4.10;3.90;;;;;;;;;;5054404;28;20855;-88
2023/03/01 12:58:29;;;;;;;3.05;2.85;;;;;;;;;;5054591;28;20056;-88
2023/03/01 13:01:05;;;;;;;5.60;4.97;;;;;;;;;;5054526;28;20079;-88
2023/03/01 13:03:37;;;;;;;5.20;4.90;;;;;;;;;;5054960;28;20108;-89
2023/03/01 13:06:09;;;;;;;6.05;5.55;;;;;;;;;;5044168;28;20045;-89
2023/03/01 13:08:39;;;;;;;3.72;3.53;;;;;;;;;;5034345;28;20053;-87
2023/03/01 13:11:20;;;;;;;5.03;4.50;;;;;;;;;;5053517;28;20392;-88
2023/03/01 13:13:48;;;;;;;7.38;5.03;;;;;;;;;;5054443;28;20064;-87
2023/03/01 13:16:23;;;;;;;4.70;4.38;;;;;;;;;;5036866;28;20057;-86
2023/03/01 13:18:49;;;;;;;6.65;6.32;;;;;;;;;;5049227;28;20148;-89
2023/03/01 13:21:29;;;;;;;6.30;5.72;;;;;;;;;;5046940;28;20056;-87
2023/03/01 13:23:56;;;;;;;4.85;4.65;;;;;;;;;;5034155;28;20057;-88
2023/03/01 13:26:22;;;;;;;5.72;5.47;;;;;;;;;;5034497;28;20489;-87
2023/03/01 13:32:04;;;;;;;3.83;3.38;;;;;;;;;;5032927;28;20434;-89
2023/03/01 13:34:49;;;;;;;3.33;3.15;;;;;;;;;;5032551;28;20053;-89
2023/03/01 13:37:30;;;;;;;4.55;4.32;;;;;;;;;;5030411;28;20484;-88
2023/03/01 13:39:58;;;;;;;5.07;4.47;;;;;;;;;;5032575;28;20053;-88
2023/03/01 13:42:43;;;;;;;4.20;3.88;;;;;;;;;;5032699;28;20046;-89
2023/03/01 13:45:24;;;;;;;3.63;3.42;;;;;;;;;;5040120;28;20473;-87
2023/03/01 13:47:53;;;;;;;4.35;4.13;;;;;;;;;;5045613;28;20088;-87
2023/03/01 13:50:21;;;;;;;5.20;4.80;;;;;;;;;;5043489;28;20053;-87
2023/03/01 13:52:52;;;;;;;7.15;6.75;;;;;;;;;;5035023;28;20054;-87
2023/03/01 13:55:20;;;;;;;5.53;5.10;;;;;;;;;;5040067;28;20044;-87
2023/03/01 13:57:48;;;;;;;3.67;3.47;;;;;;;;;;5045764;28;20099;-87
2023/03/01 14:00:26;;;;;;;3.95;3.75;;;;;;;;;;5035765;28;20095;-87
2023/03/01 14:03:00;;;;;;;4.68;4.47;;;;;;;;;;5051344;28;20045;-86
2023/03/01 14:05:26;;;;;;;4.72;4.38;;;;;;;;;;5036830;28;20621;-87
2023/03/01 14:07:54;;;;;;;3.97;3.72;;;;;;;;;;5042736;28;20457;-87
2023/03/01 14:10:22;;;;;;;4.05;3.85;;;;;;;;;;5043301;28;20045;-87
2023/03/01 14:12:51;;;;;;;5.05;4.80;;;;;;;;;;5051261;28;20057;-87
2023/03/01 14:15:20;;;;;;;5.28;4.97;;;;;;;;;;5031863;28;20049;-87
2023/03/01 14:17:56;;;;;;;5.78;5.38;;;;;;;;;;5040009;28;20051;-87
2023/03/01 14:20:24;;;;;;;6.22;5.82;;;;;;;;;;5043790;28;20103;-87
2023/03/01 14:22:53;;;;;;;5.72;5.35;;;;;;;;;;5035277;28;20056;-88
2023/03/01 14:25:29;;;;;;;5.22;4.93;;;;;;;;;;5039265;28;20458;-87
2023/03/01 14:28:00;;;;;;;5.75;5.50;;;;;;;;;;5031282;28;20057;-87
2023/03/01 14:30:28;;;;;;;6.28;5.78;;;;;;;;;;5043018;28;20053;-88
2023/03/01 14:32:55;;;;;;;6.65;6.15;;;;;;;;;;5035152;28;20107;-87
2023/03/01 14:35:23;;;;;;;4.65;4.45;;;;;;;;;;5036224;28;20046;-86
2023/03/01 14:37:50;;;;;;;7.20;6.70;;;;;;;;;;5034807;28;20491;-88
2023/03/01 14:40:25;;;;;;;6.53;6.22;;;;;;;;;;5047692;28;20063;-87
2023/03/01 14:42:53;;;;;;;5.03;4.82;;;;;;;;;;5038397;28;20045;-88
2023/03/01 14:45:20;;;;;;;5.70;5.40;;;;;;;;;;5050785;28;20100;-87
2023/03/01 14:47:47;;;;;;;7.53;6.68;;;;;;;;;;5035318;28;20045;-87
2023/03/01 14:50:19;;;;;;;5.53;5.22;;;;;;;;;;5035165;28;20049;-86
2023/03/01 14:52:47;;;;;;;5.88;5.38;;;;;;;;;;5035106;28;20467;-88
2023/03/01 14:55:16;;;;;;;4.05;3.85;;;;;;;;;;5038554;28;20119;-88
2023/03/01 14:57:44;;;;;;;4.68;4.38;;;;;;;;;;5047079;28;20708;-89